Terminal Aerodrome Forecast
Issued by NWS Mt. Holly, NJ

Home | Current Version | Previous Version | Text Only | Print | Product List | Glossary On
Versions: 1 2 3 4 5 6 7 8 9 10 11 12 13
881
FTUS41 KPHI 291133
TAFTTN
TAF
KTTN 291133Z 2912/3012 21008KT P6SM SCT150
     FM291600 22011G22KT P6SM SCT050
     FM292100 22012KT P6SM FEW250
     FM300600 21007KT P6SM SCT080=

USA.gov is the U.S. government's official web portal to all federal, state and local government web resources and services.